This is the latest recevied weather packets stored in our database for station/object KF4ERV-4. If no packets are shown the sender has not sent any weather packets the latest 1 day(s).
| Time | Temp. | Humidity | Pressure | Rain* | Wind** | Luminosity | Snow |
|---|---|---|---|---|---|---|---|
| 1778044121 | 15° C | 90% | 1007 hPa | 5.84 mm | 0 m/s | - | - |
| 1778044052 | 15° C | 91% | 1007 hPa | 5.59 mm | 0 m/s | - | - |
| 1778044009 | 15° C | 91% | 1007 hPa | 5.59 mm | 0 m/s | - | - |
| 1778043893 | 15° C | 90% | 1007 hPa | 5.84 mm | 0 m/s | - | - |
| 1778043596 | 15° C | 91% | 1007 hPa | 5.59 mm | 0 m/s | - | - |
| 1778043551 | 15° C | 91% | 1007 hPa | 5.59 mm | 0 m/s | - | - |
| 1778043301 | 15° C | 91% | 1007.2 hPa | 4.32 mm | 0 m/s | - | - |
| 1778043298 | 15° C | 91% | 1007 hPa | 5.59 mm | 0 m/s | - | - |
| 1778043253 | 15° C | 90% | 1007 hPa | 5.33 mm | 0 m/s | - | - |
| 1778042991 | 15° C | 90% | 1007 hPa | 5.33 mm | 0 m/s | - | - |
| 1778042961 | 15° C | 90% | 1007.1 hPa | 5.08 mm | 0 m/s | - | - |
| 1778042673 | 15° C | 91% | 1007.2 hPa | 4.32 mm | 0 m/s | - | - |
| 1778042397 | 15° C | 91% | 1007.2 hPa | 4.32 mm | 0 m/s | - | - |
| 1778042235 | 15° C | 91% | 1007.3 hPa | 3.05 mm | 0 m/s | - | - |
| 1778042092 | 15° C | 91% | 1007 hPa | 4.32 mm | 0 m/s | - | - |
| 1778041791 | 15° C | 91% | 1007.3 hPa | 3.05 mm | 0 m/s | - | - |
| 1778041495 | 15° C | 91% | 1007 hPa | 2.03 mm | 0 m/s | - | - |
| 1778041197 | 15° C | 91% | 1007 hPa | 1.52 mm | 0 m/s | - | - |
| 1778040934 | 15° C | 91% | 1007 hPa | 1.02 mm | 0 m/s | - | - |
| 1778040890 | 15° C | 91% | 1007 hPa | 1.02 mm | 0 m/s | - | - |
| 1778040642 | 15° C | 91% | 1007 hPa | 1.02 mm | 0 m/s | - | - |
| 1778040593 | 15° C | 91% | 1007 hPa | 1.02 mm | 0 m/s | - | - |
| 1778040352 | 15° C | 91% | 1007 hPa | 1.02 mm | 0 m/s | - | - |
| 1778040296 | 15° C | 91% | 1007 hPa | 1.02 mm | 0 m/s | - | - |
| 1778040062 | 15° C | 91% | 1007 hPa | 1.02 mm | 0 m/s | - | - |
* Rain latest hour (hover to see other rain measurements)
** Current wind speed in m/s (hover to see current wind gust speed)